Time;durP1;ratioP1;P1;durP2;ratioP2;P2;SDS_P1;SDS_P2;PMS_P1;PMS_P2;Temp;Humidity;BMP_temperature;BMP_pressure;BME280_temperature;BME280_humidity;BME280_pressure;Samples;Min_cycle;Max_cycle;Signal;HPM_P1;HPM_P2
2024/02/20 00:02:00;;;;;;;8.20;3.25;;;;;;;6.39;100.00;101374.47;5096333;27;20429;-79
2024/02/20 00:04:30;;;;;;;8.98;2.88;;;;;;;6.22;100.00;101378.97;5096582;27;20406;-79
2024/02/20 00:06:58;;;;;;;8.40;2.87;;;;;;;6.22;100.00;101378.97;5100586;27;20756;-79
2024/02/20 00:09:26;;;;;;;7.82;3.20;;;;;;;6.09;100.00;101379.97;5131134;27;20456;-79
2024/02/20 00:12:00;;;;;;;9.23;3.00;;;;;;;6.12;100.00;101383.06;5098206;28;20422;-79
2024/02/20 00:14:33;;;;;;;7.50;2.53;;;;;;;6.19;100.00;101379.44;5101824;28;20427;-79
2024/02/20 00:17:07;;;;;;;5.80;2.50;;;;;;;6.07;100.00;101385.63;5100044;28;20409;-79
2024/02/20 00:19:43;;;;;;;8.15;2.65;;;;;;;6.09;100.00;101386.22;5098685;28;20424;-79
2024/02/20 00:22:16;;;;;;;7.50;2.70;;;;;;;6.08;100.00;101379.16;5098771;27;20425;-79
2024/02/20 00:24:49;;;;;;;5.45;2.47;;;;;;;6.12;100.00;101384.94;5096838;27;20414;-79
2024/02/20 00:27:17;;;;;;;10.73;3.20;;;;;;;6.10;100.00;101384.34;5097809;28;20864;-79
2024/02/20 00:29:50;;;;;;;8.35;3.10;;;;;;;6.03;100.00;101395.25;5095667;28;20435;-79
2024/02/20 00:32:23;;;;;;;10.07;3.42;;;;;;;6.09;100.00;101380.81;5107998;27;20421;-79
2024/02/20 00:34:53;;;;;;;9.02;3.40;;;;;;;6.12;100.00;101379.53;5101647;28;20419;-79
2024/02/20 00:37:26;;;;;;;10.68;3.63;;;;;;;6.08;100.00;101381.06;5109766;27;20430;-79
2024/02/20 00:39:59;;;;;;;11.88;3.13;;;;;;;6.05;100.00;101382.34;5096869;27;20415;-79
2024/02/20 00:42:33;;;;;;;11.95;3.50;;;;;;;6.05;100.00;101382.34;5099282;28;20431;-79
2024/02/20 00:45:08;;;;;;;9.93;3.03;;;;;;;5.95;100.00;101384.75;5113607;27;20416;-79
2024/02/20 00:47:41;;;;;;;12.20;3.08;;;;;;;5.91;100.00;101379.00;5096772;28;20420;-79
2024/02/20 00:50:16;;;;;;;8.43;3.00;;;;;;;5.74;100.00;101380.69;5095817;27;20443;-79
2024/02/20 00:52:49;;;;;;;9.20;2.67;;;;;;;5.69;100.00;101378.69;5098183;28;20446;-79
2024/02/20 00:55:17;;;;;;;10.90;2.72;;;;;;;5.68;100.00;101373.53;5095142;28;20763;-79
2024/02/20 00:57:45;;;;;;;11.38;2.90;;;;;;;5.70;100.00;101377.63;5099970;28;20426;-79
2024/02/20 01:00:14;;;;;;;10.20;3.10;;;;;;;5.57;100.00;101375.13;5113421;27;20784;-79
2024/02/20 01:02:47;;;;;;;9.35;2.80;;;;;;;5.54;100.00;101376.41;5097716;27;20424;-79
2024/02/20 01:05:17;;;;;;;9.88;3.00;;;;;;;5.62;100.00;101381.50;5096762;27;20419;-79
2024/02/20 01:07:51;;;;;;;13.68;3.20;;;;;;;5.69;100.00;101380.56;5098072;27;20778;-80
2024/02/20 01:10:25;;;;;;;9.75;2.70;;;;;;;5.67;100.00;101383.50;5095312;28;20433;-79
2024/02/20 01:13:00;;;;;;;8.27;2.77;;;;;;;5.77;100.00;101383.78;5095078;28;20476;-79
2024/02/20 01:15:33;;;;;;;8.57;2.60;;;;;;;5.72;100.00;101380.94;5099237;28;20776;-79
2024/02/20 01:18:06;;;;;;;10.20;2.80;;;;;;;5.74;100.00;101378.81;5096317;28;20516;-79
2024/02/20 01:20:41;;;;;;;13.25;2.83;;;;;;;5.76;100.00;101376.72;5100580;28;20420;-79
2024/02/20 01:23:14;;;;;;;8.93;2.95;;;;;;;5.67;100.00;101374.56;5094153;28;20420;-79
2024/02/20 01:25:43;;;;;;;13.05;2.47;;;;;;;5.75;100.00;101371.53;5099031;28;20443;-79
2024/02/20 01:28:17;;;;;;;10.53;2.70;;;;;;;5.79;100.00;101381.66;5101056;27;20422;-80
2024/02/20 01:30:51;;;;;;;10.38;2.42;;;;;;;5.69;100.00;101385.97;5096845;28;20439;-79
2024/02/20 01:33:24;;;;;;;8.50;2.70;;;;;;;5.70;100.00;101388.41;5096343;28;20426;-79
2024/02/20 01:35:59;;;;;;;11.20;2.50;;;;;;;5.69;100.00;101391.34;5102096;28;20425;-79
2024/02/20 01:38:33;;;;;;;12.45;2.50;;;;;;;5.75;100.00;101390.44;5094612;28;20420;-79
2024/02/20 01:41:01;;;;;;;10.32;2.33;;;;;;;5.75;100.00;101388.56;5098591;28;20421;-79
2024/02/20 01:43:35;;;;;;;10.83;2.60;;;;;;;5.78;100.00;101390.00;5095242;28;20422;-79
2024/02/20 01:46:09;;;;;;;12.25;2.33;;;;;;;5.68;100.00;101395.13;5097026;28;20414;-78
2024/02/20 01:48:43;;;;;;;11.68;2.33;;;;;;;5.60;100.00;101390.88;5093690;28;20429;-79
2024/02/20 01:51:20;;;;;;;12.90;2.47;;;;;;;5.61;100.00;101403.31;5096633;28;20424;-79
2024/02/20 01:53:50;;;;;;;11.00;2.57;;;;;;;5.68;100.00;101404.03;5109773;28;20901;-79
2024/02/20 01:56:19;;;;;;;7.50;1.90;;;;;;;5.70;100.00;101410.03;5111688;28;20461;-79
2024/02/20 01:58:52;;;;;;;9.45;2.22;;;;;;;5.64;100.00;101402.84;5101177;28;20412;-79
2024/02/20 02:01:26;;;;;;;8.90;2.28;;;;;;;5.67;100.00;101409.69;5095245;28;20424;-79
2024/02/20 02:03:59;;;;;;;8.15;2.20;;;;;;;5.72;100.00;101396.31;5126433;27;20968;-79
2024/02/20 02:06:38;;;;;;;10.13;2.20;;;;;;;5.64;100.00;101402.84;5096034;28;20433;-79
2024/02/20 02:09:12;;;;;;;8.32;1.92;;;;;;;5.69;100.00;101405.69;5096881;28;20961;-79
2024/02/20 02:11:41;;;;;;;10.02;2.17;;;;;;;5.61;100.00;101404.13;5097668;28;20413;-79
2024/02/20 02:14:14;;;;;;;9.30;1.92;;;;;;;5.64;100.00;101410.97;5101061;28;20806;-79
2024/02/20 02:16:45;;;;;;;12.27;1.95;;;;;;;5.70;100.00;101409.22;5131627;27;20920;-79
2024/02/20 02:19:18;;;;;;;6.40;1.65;;;;;;;5.66;100.00;101416.94;5099775;27;20445;-79
2024/02/20 02:21:53;;;;;;;11.00;2.30;;;;;;;5.65;100.00;101419.88;5098061;28;20428;-79
2024/02/20 02:24:26;;;;;;;9.10;2.33;;;;;;;5.74;100.00;101424.72;5101662;28;21146;-79
2024/02/20 02:27:01;;;;;;;9.32;2.20;;;;;;;5.70;100.00;101420.81;5100047;28;20427;-79
2024/02/20 02:29:35;;;;;;;9.50;2.30;;;;;;;5.74;100.00;101419.31;5112955;27;20433;-79
2024/02/20 02:32:08;;;;;;;12.38;2.65;;;;;;;5.69;100.00;101421.91;5099746;28;20429;-79
2024/02/20 02:34:41;;;;;;;9.18;2.20;;;;;;;5.77;100.00;101427.00;5101028;28;21081;-79
2024/02/20 02:37:15;;;;;;;8.23;2.00;;;;;;;5.64;100.00;101427.16;5101865;28;20423;-79
2024/02/20 02:39:48;;;;;;;10.23;2.40;;;;;;;5.69;100.00;101429.16;5098680;28;20790;-79
2024/02/20 02:42:19;;;;;;;12.73;2.20;;;;;;;5.70;100.00;101428.13;5096621;28;20408;-79
2024/02/20 02:44:53;;;;;;;9.15;2.10;;;;;;;5.67;100.00;101428.59;5104142;28;20951;-79
2024/02/20 02:47:26;;;;;;;9.90;2.10;;;;;;;5.69;100.00;101419.22;5101834;28;20549;-79
2024/02/20 02:49:59;;;;;;;13.90;2.22;;;;;;;5.69;100.00;101429.16;5099344;28;20421;-79
2024/02/20 02:52:28;;;;;;;10.18;1.90;;;;;;;5.75;100.00;101422.88;5097854;28;20447;-79
2024/02/20 02:55:01;;;;;;;8.95;1.83;;;;;;;5.70;100.00;101430.81;5099140;28;20431;-79
2024/02/20 02:57:36;;;;;;;9.33;1.77;;;;;;;5.70;100.00;101433.53;5099462;28;20422;-79
2024/02/20 03:00:11;;;;;;;7.25;1.60;;;;;;;5.70;100.00;101431.63;5099081;28;20415;-79
2024/02/20 03:02:46;;;;;;;5.72;1.67;;;;;;;5.76;100.00;101433.44;5102749;27;20454;-79
2024/02/20 03:05:15;;;;;;;7.68;1.52;;;;;;;5.77;100.00;101442.34;5115172;27;20442;-78
2024/02/20 03:07:44;;;;;;;9.43;1.48;;;;;;;5.72;100.00;101451.16;5097516;28;21222;-78
2024/02/20 03:10:17;;;;;;;7.40;1.50;;;;;;;5.69;100.00;101448.06;5098618;28;20424;-79
2024/02/20 03:12:55;;;;;;;6.78;1.50;;;;;;;5.65;100.00;101457.69;5103134;27;20401;-79
2024/02/20 03:15:29;;;;;;;5.70;1.38;;;;;;;5.69;100.00;101453.47;5098810;28;20421;-79
2024/02/20 03:18:02;;;;;;;4.63;1.50;;;;;;;5.72;100.00;101448.44;5096137;28;20416;-79
2024/02/20 03:20:36;;;;;;;5.63;1.50;;;;;;;5.71;100.00;101471.09;5102117;27;20408;-78
2024/02/20 03:23:09;;;;;;;6.55;1.63;;;;;;;5.66;100.00;101470.13;5097269;28;20439;-79
2024/02/20 03:25:42;;;;;;;6.72;1.88;;;;;;;5.78;100.00;101469.13;5104975;27;20420;-79
2024/02/20 03:28:17;;;;;;;8.07;1.77;;;;;;;5.68;100.00;101471.56;5099387;28;20419;-79
2024/02/20 03:30:51;;;;;;;7.65;1.52;;;;;;;5.70;100.00;101474.84;5098080;28;20437;-79
2024/02/20 03:33:26;;;;;;;8.68;1.83;;;;;;;5.61;100.00;101482.44;5100843;28;20413;-79
2024/02/20 03:35:59;;;;;;;8.98;1.73;;;;;;;5.65;100.00;101472.03;5128420;27;20519;-79
2024/02/20 03:38:28;;;;;;;6.47;1.58;;;;;;;5.61;100.00;101481.63;5098594;28;20665;-79
2024/02/20 03:40:56;;;;;;;8.57;1.73;;;;;;;5.68;100.00;101489.66;5095015;27;21122;-79
2024/02/20 03:43:32;;;;;;;14.38;2.00;;;;;;;5.65;100.00;101492.78;5098978;28;20401;-79
2024/02/20 03:46:02;;;;;;;8.32;1.85;;;;;;;5.69;100.00;101500.22;5113212;27;20427;-79
2024/02/20 03:48:35;;;;;;;12.90;2.08;;;;;;;5.72;100.00;101507.06;5101368;28;20877;-78
2024/02/20 03:51:08;;;;;;;14.90;2.65;;;;;;;5.56;100.00;101501.19;5103203;27;20426;-78
2024/02/20 03:53:41;;;;;;;14.00;2.50;;;;;;;5.61;100.00;101504.03;5132713;27;20780;-79
2024/02/20 03:56:15;;;;;;;15.45;2.45;;;;;;;5.54;100.00;101511.41;5097847;27;20424;-79
2024/02/20 03:58:50;;;;;;;14.15;2.15;;;;;;;5.57;100.00;101513.66;5098301;28;20426;-79
2024/02/20 04:01:23;;;;;;;17.47;2.37;;;;;;;5.60;100.00;101515.06;5113081;27;20433;-79
2024/02/20 04:03:56;;;;;;;14.40;2.42;;;;;;;5.47;100.00;101516.06;5111873;27;20431;-79
2024/02/20 04:06:30;;;;;;;20.42;2.30;;;;;;;5.47;100.00;101517.91;5113762;27;20917;-79
2024/02/20 04:09:04;;;;;;;23.25;2.47;;;;;;;5.49;100.00;101519.34;5097636;27;20445;-80
2024/02/20 04:11:37;;;;;;;13.93;2.40;;;;;;;5.43;100.00;101531.88;5097591;27;20460;-79
2024/02/20 04:14:12;;;;;;;19.90;3.00;;;;;;;5.38;100.00;101520.91;5094139;27;21147;-79
2024/02/20 04:16:40;;;;;;;21.27;3.00;;;;;;;5.25;100.00;101532.69;5098035;28;20757;-78
2024/02/20 04:19:13;;;;;;;18.55;3.00;;;;;;;5.32;100.00;101529.94;5129352;27;20420;-79
2024/02/20 04:21:47;;;;;;;22.70;2.90;;;;;;;5.35;100.00;101524.06;5098558;28;20774;-79
2024/02/20 04:24:20;;;;;;;15.02;2.60;;;;;;;5.27;100.00;101527.06;5097089;27;20428;-78
2024/02/20 04:26:53;;;;;;;17.15;3.05;;;;;;;5.25;100.00;101538.09;5098035;28;20816;-79
2024/02/20 04:29:28;;;;;;;17.45;2.90;;;;;;;5.28;100.00;101537.63;5099684;27;20428;-79
2024/02/20 04:32:01;;;;;;;20.55;2.95;;;;;;;5.26;100.00;101539.75;5096980;28;20425;-79
2024/02/20 04:34:34;;;;;;;21.35;3.13;;;;;;;5.17;100.00;101545.66;5098523;28;20414;-78
2024/02/20 04:37:08;;;;;;;20.55;2.90;;;;;;;5.17;100.00;101546.47;5093266;28;20419;-78
2024/02/20 04:39:43;;;;;;;15.55;3.33;;;;;;;5.18;100.00;101556.22;5097675;28;20420;-78
2024/02/20 04:42:16;;;;;;;18.77;3.20;;;;;;;5.16;100.00;101565.56;5097260;28;20922;-79
2024/02/20 04:44:51;;;;;;;17.48;3.53;;;;;;;5.30;100.00;101563.56;5111549;27;20431;-79
2024/02/20 04:47:19;;;;;;;20.08;2.88;;;;;;;5.21;100.00;101563.88;5098703;28;20417;-78
2024/02/20 04:49:53;;;;;;;24.33;3.87;;;;;;;5.18;100.00;101571.56;5098504;27;21127;-78
2024/02/20 04:52:26;;;;;;;19.15;3.03;;;;;;;5.30;100.00;101579.78;5130637;27;20429;-78
2024/02/20 04:54:59;;;;;;;25.47;3.57;;;;;;;5.18;100.00;101575.09;5096122;28;21146;-78
2024/02/20 04:57:28;;;;;;;23.63;3.15;;;;;;;5.16;100.00;101585.28;5096159;28;20402;-78
2024/02/20 05:00:08;;;;;;;22.00;3.88;;;;;;;5.10;100.00;101591.56;5098706;28;20414;-78
2024/02/20 05:02:42;;;;;;;29.05;3.60;;;;;;;5.04;100.00;101587.03;5098856;28;20425;-78
2024/02/20 05:05:15;;;;;;;23.87;3.53;;;;;;;5.00;100.00;101594.78;5095292;28;20436;-78
2024/02/20 05:07:49;;;;;;;22.88;3.47;;;;;;;5.02;100.00;101606.16;5097483;28;20427;-78
2024/02/20 05:10:23;;;;;;;22.88;3.88;;;;;;;5.01;100.00;101609.91;5096286;28;20420;-78
2024/02/20 05:12:56;;;;;;;27.55;4.03;;;;;;;4.99;100.00;101606.59;5114430;27;20422;-78
2024/02/20 05:15:26;;;;;;;22.27;3.47;;;;;;;5.03;100.00;101601.59;5097327;28;20420;-78
2024/02/20 05:18:01;;;;;;;28.92;3.72;;;;;;;5.02;100.00;101606.16;5108443;27;20422;-79
2024/02/20 05:20:35;;;;;;;24.55;3.05;;;;;;;4.98;100.00;101610.34;5095940;28;20428;-78
2024/02/20 05:23:03;;;;;;;26.10;3.70;;;;;;;5.05;100.00;101596.81;5096844;28;20428;-78
2024/02/20 05:25:31;;;;;;;30.20;3.90;;;;;;;4.99;100.00;101608.47;5096267;28;20427;-78
2024/02/20 05:28:05;;;;;;;27.30;3.88;;;;;;;5.11;100.00;101620.22;5092767;28;20424;-79
2024/02/20 05:30:35;;;;;;;22.73;3.27;;;;;;;5.01;100.00;101617.97;5098745;28;20400;-78
2024/02/20 05:33:10;;;;;;;18.35;3.10;;;;;;;5.08;100.00;101621.47;5098197;28;20425;-79
2024/02/20 05:35:44;;;;;;;20.05;2.85;;;;;;;5.00;100.00;101612.81;5097431;28;20420;-79
2024/02/20 05:38:14;;;;;;;28.13;3.13;;;;;;;5.04;100.00;101619.41;5096974;28;20430;-78
2024/02/20 05:40:42;;;;;;;26.63;3.72;;;;;;;4.96;100.00;101620.53;5131925;27;20409;-78
2024/02/20 05:43:15;;;;;;;24.75;3.42;;;;;;;4.98;100.00;101631.09;5097791;28;20433;-79
2024/02/20 05:45:50;;;;;;;24.97;3.40;;;;;;;4.97;100.00;101627.56;5094524;28;20429;-79
2024/02/20 05:48:23;;;;;;;22.40;3.25;;;;;;;4.90;100.00;101633.03;5110137;28;20770;-79
2024/02/20 05:50:57;;;;;;;25.60;3.42;;;;;;;4.89;100.00;101634.06;5103508;27;20419;-78
2024/02/20 05:53:30;;;;;;;22.13;3.42;;;;;;;4.80;100.00;101637.25;5106786;28;20432;-78
2024/02/20 05:56:03;;;;;;;26.70;3.70;;;;;;;4.96;100.00;101641.28;5102279;28;20428;-79
2024/02/20 05:58:32;;;;;;;25.50;3.85;;;;;;;4.82;100.00;101638.69;5100227;27;20428;-79
2024/02/20 06:01:08;;;;;;;22.23;3.22;;;;;;;4.76;100.00;101640.38;5103508;27;20410;-80
2024/02/20 06:03:43;;;;;;;27.23;3.72;;;;;;;4.73;100.00;101640.78;5091964;28;20420;-80
2024/02/20 06:06:20;;;;;;;29.45;3.35;;;;;;;4.74;100.00;101647.84;5099106;27;20427;-80
2024/02/20 06:08:49;;;;;;;27.77;3.90;;;;;;;4.84;100.00;101644.69;5103504;28;20420;-80
2024/02/20 06:11:21;;;;;;;26.37;3.77;;;;;;;4.80;100.00;101642.63;5113392;27;20415;-80
2024/02/20 06:13:54;;;;;;;31.27;3.78;;;;;;;4.92;100.00;101643.59;5102826;27;20906;-80
2024/02/20 06:16:29;;;;;;;30.13;3.72;;;;;;;4.85;100.00;101643.63;5103847;27;20790;-79
2024/02/20 06:18:58;;;;;;;30.13;3.95;;;;;;;4.84;100.00;101639.28;5098035;28;20431;-79
2024/02/20 06:21:31;;;;;;;24.35;3.38;;;;;;;4.77;100.00;101641.19;5098332;28;20414;-79
2024/02/20 06:23:59;;;;;;;41.10;4.70;;;;;;;4.79;100.00;101641.78;5099652;28;20426;-79
2024/02/20 06:26:30;;;;;;;31.10;4.03;;;;;;;4.73;100.00;101645.38;5100722;28;20426;-79
2024/02/20 06:29:04;;;;;;;26.40;3.67;;;;;;;4.74;100.00;101655.94;5101001;28;20416;-79
2024/02/20 06:31:40;;;;;;;34.37;4.03;;;;;;;4.80;100.00;101654.25;5102497;27;20502;-79
2024/02/20 06:34:13;;;;;;;36.72;5.38;;;;;;;4.72;100.00;101641.00;5129763;27;21409;-80
2024/02/20 06:36:46;;;;;;;30.42;3.70;;;;;;;4.67;100.00;101647.06;5099027;28;20443;-81
2024/02/20 06:39:19;;;;;;;31.20;4.10;;;;;;;4.60;100.00;101657.06;5099867;28;20420;-80
2024/02/20 06:41:53;;;;;;;32.50;4.30;;;;;;;4.70;100.00;101662.81;5105502;28;20437;-80
2024/02/20 06:44:21;;;;;;;31.45;3.97;;;;;;;4.70;100.00;101656.59;5099363;28;20417;-79
2024/02/20 06:46:56;;;;;;;29.85;3.70;;;;;;;4.70;100.00;101662.81;5097781;28;20430;-80
2024/02/20 06:49:29;;;;;;;35.80;4.63;;;;;;;4.82;100.00;101652.16;5096807;28;20429;-80
2024/02/20 06:52:03;;;;;;;29.13;3.70;;;;;;;4.85;100.00;101665.22;5098090;28;20735;-80
2024/02/20 06:54:36;;;;;;;39.63;4.38;;;;;;;4.90;100.00;101665.41;5098183;28;20435;-80
2024/02/20 06:57:05;;;;;;;34.70;4.07;;;;;;;5.05;100.00;101665.06;5098172;28;21058;-80
2024/02/20 06:59:34;;;;;;;27.25;4.10;;;;;;;5.05;100.00;101673.16;5094982;28;20425;-80
2024/02/20 07:02:09;;;;;;;31.27;4.03;;;;;;;5.02;100.00;101679.00;5096775;28;20436;-80
2024/02/20 07:04:42;;;;;;;36.00;4.27;;;;;;;5.26;100.00;101682.78;5095835;28;20428;-80
2024/02/20 07:07:15;;;;;;;35.03;3.90;;;;;;;5.21;100.00;101681.78;5112453;28;20429;-80
2024/02/20 07:09:48;;;;;;;32.13;3.93;;;;;;;5.17;100.00;101684.09;5093063;28;20916;-80
2024/02/20 07:12:23;;;;;;;30.83;3.83;;;;;;;5.11;100.00;101679.59;5096635;28;20424;-80
2024/02/20 07:14:57;;;;;;;34.75;4.03;;;;;;;5.31;100.00;101684.81;5112042;28;20912;-80
2024/02/20 07:17:33;;;;;;;37.10;4.40;;;;;;;5.25;100.00;101686.53;5096489;28;20412;-80
2024/02/20 07:20:02;;;;;;;36.05;4.55;;;;;;;5.22;100.00;101686.97;5099125;28;20444;-80
2024/02/20 07:22:32;;;;;;;32.57;4.47;;;;;;;5.36;100.00;101685.00;5101824;28;20924;-80
2024/02/20 07:25:00;;;;;;;32.77;3.87;;;;;;;5.31;100.00;101681.31;5099156;28;20421;-80
2024/02/20 07:27:34;;;;;;;33.53;4.32;;;;;;;5.40;100.00;101678.09;5100220;28;20433;-80
2024/02/20 07:30:10;;;;;;;41.28;5.18;;;;;;;5.27;100.00;101676.34;5111346;28;20919;-80
2024/02/20 07:32:41;;;;;;;41.78;4.70;;;;;;;5.19;100.00;101675.78;5096322;28;20418;-80
2024/02/20 07:35:11;;;;;;;34.95;4.32;;;;;;;5.10;100.00;101673.34;5112613;27;20436;-80
2024/02/20 07:37:39;;;;;;;35.60;4.70;;;;;;;5.06;100.00;101676.69;5102135;28;20427;-80
2024/02/20 07:40:13;;;;;;;41.60;4.70;;;;;;;5.09;100.00;101678.97;5095473;28;20522;-80
2024/02/20 07:42:46;;;;;;;30.55;4.45;;;;;;;5.12;100.00;101681.22;5094068;28;20430;-79
2024/02/20 07:45:33;;;;;;;41.42;4.95;;;;;;;5.19;100.00;101683.88;5054598;28;20394;-81
2024/02/20 07:48:11;;;;;;;40.55;4.35;;;;;;;5.27;100.00;101673.66;5053390;28;20416;-81
2024/02/20 07:50:39;;;;;;;39.75;4.72;;;;;;;5.30;100.00;101677.75;5051536;28;20448;-80
2024/02/20 07:53:13;;;;;;;35.77;4.37;;;;;;;5.31;100.00;101689.41;5055337;28;20470;-80
2024/02/20 07:55:46;;;;;;;40.78;6.18;;;;;;;5.36;100.00;101684.13;5051350;28;20779;-80
2024/02/20 07:58:19;;;;;;;36.53;4.35;;;;;;;5.54;100.00;101686.91;5046373;28;20425;-81
2024/02/20 08:00:54;;;;;;;29.25;4.40;;;;;;;5.54;100.00;101678.00;5051472;28;21186;-80
2024/02/20 08:03:27;;;;;;;38.35;4.57;;;;;;;5.57;100.00;101694.56;5044119;28;20444;-81
2024/02/20 08:05:55;;;;;;;34.75;4.53;;;;;;;5.62;100.00;101693.88;5037387;28;21865;-81
2024/02/20 08:08:31;;;;;;;32.92;3.72;;;;;;;5.68;100.00;101679.50;5026664;28;20443;-82
2024/02/20 08:11:00;;;;;;;32.38;4.43;;;;;;;5.69;100.00;101685.72;5032359;28;20418;-82
2024/02/20 08:13:28;;;;;;;34.83;4.03;;;;;;;5.80;100.00;101687.72;5033004;28;20437;-81
2024/02/20 08:16:03;;;;;;;29.02;4.22;;;;;;;6.00;100.00;101679.44;5034743;28;20433;-81
2024/02/20 08:18:36;;;;;;;34.72;4.30;;;;;;;6.00;100.00;101676.72;5035711;28;20433;-80
2024/02/20 08:21:11;;;;;;;31.17;4.28;;;;;;;6.00;100.00;101674.03;5032185;28;20428;-81
2024/02/20 08:23:44;;;;;;;35.45;5.40;;;;;;;6.02;100.00;101668.38;5030772;28;20432;-84
2024/02/20 08:26:17;;;;;;;39.90;4.47;;;;;;;6.21;100.00;101672.72;5028749;28;20439;-81
2024/02/20 08:32:53;;;;;;;29.05;3.97;;;;;;;6.35;100.00;101667.19;4959996;28;20487;-81
2024/02/20 08:35:26;;;;;;;29.08;4.28;;;;;;;6.29;100.00;101663.50;4956578;28;20426;-81
2024/02/20 08:37:56;;;;;;;32.75;4.40;;;;;;;6.43;100.00;101666.88;5027716;28;20431;-81
2024/02/20 08:40:24;;;;;;;31.55;3.63;;;;;;;6.39;100.00;101673.78;5032444;28;20471;-81
2024/02/20 08:42:57;;;;;;;26.65;3.70;;;;;;;6.33;100.00;101672.00;5032305;28;20441;-80
2024/02/20 08:45:31;;;;;;;36.33;4.32;;;;;;;6.53;100.00;101672.56;5031858;28;21104;-78
2024/02/20 08:48:20;;;;;;;34.08;3.72;;;;;;;6.35;100.00;101668.00;5035977;28;20439;-78
2024/02/20 08:50:59;;;;;;;29.48;4.40;;;;;;;6.44;100.00;101682.84;5033516;28;20913;-78
2024/02/20 08:53:33;;;;;;;33.28;4.40;;;;;;;6.37;100.00;101674.00;5035402;28;20436;-81
2024/02/20 08:56:06;;;;;;;33.42;4.28;;;;;;;6.31;100.00;101669.50;5017367;28;20436;-80
2024/02/20 08:58:39;;;;;;;35.30;4.30;;;;;;;6.37;100.00;101670.50;5019398;28;22130;-79
2024/02/20 09:01:13;;;;;;;28.67;4.10;;;;;;;6.43;100.00;101677.69;5021133;28;20433;-78
2024/02/20 09:03:47;;;;;;;33.47;4.15;;;;;;;6.33;100.00;101672.00;5018601;28;20429;-78
2024/02/20 09:06:16;;;;;;;29.67;4.30;;;;;;;6.38;100.00;101670.25;5030900;28;20445;-79
2024/02/20 09:08:49;;;;;;;34.45;8.07;;;;;;;6.38;100.00;101672.97;5012607;28;20432;-78
2024/02/20 09:11:17;;;;;;;29.85;4.43;;;;;;;6.37;100.00;101679.41;5013416;28;20436;-78
2024/02/20 09:13:51;;;;;;;37.53;4.38;;;;;;;6.29;100.00;101672.44;5023115;28;21083;-78
2024/02/20 09:16:19;;;;;;;34.08;4.10;;;;;;;6.41;100.00;101680.63;5026600;28;20475;-77
2024/02/20 09:18:53;;;;;;;31.15;4.50;;;;;;;6.34;100.00;101676.34;5017163;28;20452;-77
2024/02/20 09:21:22;;;;;;;26.87;4.63;;;;;;;6.42;100.00;101668.75;5016754;28;20445;-79
2024/02/20 09:23:56;;;;;;;33.13;4.72;;;;;;;6.33;100.00;101672.00;5021692;28;20444;-78
2024/02/20 09:26:30;;;;;;;30.20;4.60;;;;;;;6.44;100.00;101671.22;5020778;28;21156;-78
2024/02/20 09:29:03;;;;;;;27.92;4.40;;;;;;;6.33;100.00;101669.28;5026677;28;20433;-78
2024/02/20 09:31:36;;;;;;;30.45;4.68;;;;;;;6.47;100.00;101677.00;5020027;28;20573;-78
2024/02/20 09:34:11;;;;;;;29.50;4.50;;;;;;;6.58;100.00;101670.00;5021689;28;20524;-77
2024/02/20 09:36:44;;;;;;;30.00;3.83;;;;;;;6.67;100.00;101673.22;5012870;28;20426;-78
2024/02/20 09:39:12;;;;;;;33.78;4.38;;;;;;;6.59;100.00;101663.53;5015113;28;21980;-77
2024/02/20 09:41:46;;;;;;;26.50;4.18;;;;;;;6.63;100.00;101667.44;5017388;28;21829;-78
2024/02/20 09:44:20;;;;;;;31.95;4.50;;;;;;;6.67;100.00;101657.00;5017190;28;20444;-78
2024/02/20 09:46:57;;;;;;;27.20;4.65;;;;;;;6.79;100.00;101667.84;5016566;28;20445;-78
2024/02/20 09:49:28;;;;;;;30.92;4.00;;;;;;;6.79;100.00;101659.72;5015373;28;20438;-78
2024/02/20 09:52:04;;;;;;;29.17;4.18;;;;;;;6.98;100.00;101666.72;5022258;28;20440;-78
2024/02/20 09:54:33;;;;;;;28.20;4.13;;;;;;;6.91;100.00;101662.47;5018374;28;20503;-78
2024/02/20 09:57:07;;;;;;;23.00;3.97;;;;;;;7.03;100.00;101662.50;5017719;28;20933;-78
2024/02/20 09:59:40;;;;;;;26.27;3.75;;;;;;;7.02;100.00;101660.88;5031394;28;20433;-78
2024/02/20 10:02:17;;;;;;;19.33;3.17;;;;;;;7.10;100.00;101672.16;5018585;28;20432;-78
2024/02/20 10:04:52;;;;;;;21.03;3.30;;;;;;;7.07;100.00;101669.09;5016355;28;20432;-78
2024/02/20 10:07:25;;;;;;;25.27;3.85;;;;;;;7.12;100.00;101671.94;5018777;28;20447;-77
2024/02/20 10:09:59;;;;;;;23.92;3.25;;;;;;;7.14;100.00;101670.66;5017333;28;20432;-78
2024/02/20 10:12:36;;;;;;;20.48;3.42;;;;;;;7.11;100.00;101678.41;5019237;28;21109;-77
2024/02/20 10:15:10;;;;;;;23.70;3.63;;;;;;;7.09;100.00;101686.75;5016065;28;20967;-78
2024/02/20 10:17:43;;;;;;;24.15;4.35;;;;;;;7.40;100.00;101686.69;5012279;28;20444;-78
2024/02/20 10:20:17;;;;;;;26.55;3.58;;;;;;;7.48;100.00;101673.66;5014474;28;20456;-77
2024/02/20 10:22:51;;;;;;;24.38;3.53;;;;;;;7.52;100.00;101687.53;5020483;28;22017;-77
2024/02/20 10:25:24;;;;;;;18.58;3.65;;;;;;;7.63;100.00;101688.59;5015689;28;20478;-78
2024/02/20 10:27:52;;;;;;;19.70;3.28;;;;;;;7.81;100.00;101683.03;5018162;28;20426;-78
2024/02/20 10:30:20;;;;;;;24.27;3.83;;;;;;;7.81;100.00;101685.75;5017754;28;20429;-78
2024/02/20 10:32:49;;;;;;;21.52;3.95;;;;;;;7.81;100.00;101687.66;5028119;28;20432;-78
2024/02/20 10:35:24;;;;;;;25.55;4.20;;;;;;;7.92;100.00;101673.25;5012025;28;21254;-78
2024/02/20 10:38:02;;;;;;;22.23;3.85;;;;;;;8.06;100.00;101675.72;5014778;28;21255;-79
2024/02/20 10:40:35;;;;;;;24.67;4.70;;;;;;;8.07;100.00;101680.09;5008279;28;20430;-77
2024/02/20 10:43:12;;;;;;;20.30;4.18;;;;;;;7.95;100.00;101677.38;5018606;28;20436;-78
2024/02/20 10:45:41;;;;;;;23.50;4.97;;;;;;;7.98;100.00;101683.16;5023993;28;20471;-78
2024/02/20 10:48:15;;;;;;;23.40;4.05;;;;;;;7.98;100.00;101680.47;5017558;28;20419;-77
2024/02/20 10:50:45;;;;;;;20.77;4.18;;;;;;;7.86;100.00;101693.19;5010705;28;20432;-77
2024/02/20 10:53:20;;;;;;;24.50;4.38;;;;;;;7.81;100.00;101688.47;5038981;28;20424;-77
2024/02/20 10:55:56;;;;;;;24.88;4.78;;;;;;;8.11;100.00;101684.78;5020669;28;20423;-78
2024/02/20 10:58:30;;;;;;;20.80;4.20;;;;;;;8.09;100.00;101681.50;5014801;28;20613;-78
2024/02/20 11:01:04;;;;;;;26.95;4.25;;;;;;;8.23;100.00;101681.22;5018253;28;20432;-78
2024/02/20 11:03:33;;;;;;;22.42;4.30;;;;;;;8.17;100.00;101681.13;5019564;28;20433;-78
2024/02/20 11:06:02;;;;;;;21.05;4.45;;;;;;;8.16;100.00;101679.50;5041722;28;20424;-77
2024/02/20 11:08:31;;;;;;;25.92;4.43;;;;;;;7.99;100.00;101687.50;5013746;28;20548;-79
2024/02/20 11:11:12;;;;;;;19.17;4.20;;;;;;;8.05;100.00;101687.63;5014911;28;20442;-79
2024/02/20 11:13:45;;;;;;;24.77;4.30;;;;;;;8.06;100.00;101681.97;5021908;28;21136;-78
2024/02/20 11:16:15;;;;;;;24.20;4.50;;;;;;;8.08;100.00;101681.72;5035215;28;21070;-77
2024/02/20 11:18:52;;;;;;;22.43;4.30;;;;;;;8.12;100.00;101683.75;5037305;28;21062;-79
2024/02/20 11:21:29;;;;;;;24.98;4.85;;;;;;;8.07;100.00;101677.38;5037653;28;20440;-78
2024/02/20 11:24:09;;;;;;;21.27;4.10;;;;;;;8.25;100.00;101681.81;5019430;28;20427;-78
2024/02/20 11:26:46;;;;;;;24.90;4.70;;;;;;;8.12;100.00;101685.59;5021578;28;20511;-79
2024/02/20 11:29:26;;;;;;;22.23;4.78;;;;;;;7.92;100.00;101681.41;5011422;28;20428;-79
2024/02/20 11:32:10;;;;;;;24.33;5.35;;;;;;;8.07;100.00;101685.53;5038406;28;20419;-78
2024/02/20 11:34:43;;;;;;;23.58;5.50;;;;;;;8.17;100.00;101675.72;5037303;28;20431;-77
2024/02/20 11:37:18;;;;;;;23.77;5.32;;;;;;;8.12;100.00;101666.63;5036612;28;20462;-78
2024/02/20 11:39:51;;;;;;;22.05;5.18;;;;;;;8.24;100.00;101666.63;5021786;28;20440;-78
2024/02/20 11:42:24;;;;;;;19.52;4.68;;;;;;;8.25;100.00;101668.28;5033694;28;20434;-78
2024/02/20 11:44:57;;;;;;;25.50;5.07;;;;;;;8.08;100.00;101662.75;5004684;28;20508;-78
2024/02/20 11:47:25;;;;;;;19.60;4.45;;;;;;;8.10;100.00;101661.44;5036667;28;20433;-78
2024/02/20 11:50:03;;;;;;;24.77;5.25;;;;;;;8.29;100.00;101667.53;5035993;28;20812;-77